sensor_id;sensor_type;location;lat;lon;timestamp;temperature;humidity
21830;DHT22;11077;50.264;6.798;2023-04-06T00:01:08;-0.70;99.90
21830;DHT22;11077;50.264;6.798;2023-04-06T00:03:36;-0.60;99.90
21830;DHT22;11077;50.264;6.798;2023-04-06T00:06:05;-0.60;99.90
21830;DHT22;11077;50.264;6.798;2023-04-06T00:08:34;-0.60;99.90
21830;DHT22;11077;50.264;6.798;2023-04-06T00:11:01;-0.60;99.90
21830;DHT22;11077;50.264;6.798;2023-04-06T00:13:29;-0.60;99.90
21830;DHT22;11077;50.264;6.798;2023-04-06T00:15:56;-0.60;99.90
21830;DHT22;11077;50.264;6.798;2023-04-06T00:18:24;-0.60;99.90
21830;DHT22;11077;50.264;6.798;2023-04-06T00:20:52;-0.60;99.90
21830;DHT22;11077;50.264;6.798;2023-04-06T00:23:20;-0.50;99.90
21830;DHT22;11077;50.264;6.798;2023-04-06T00:25:48;-0.50;99.90
21830;DHT22;11077;50.264;6.798;2023-04-06T00:28:16;-0.40;99.90
21830;DHT22;11077;50.264;6.798;2023-04-06T00:30:47;-0.40;99.90
21830;DHT22;11077;50.264;6.798;2023-04-06T00:33:15;-0.40;99.90
21830;DHT22;11077;50.264;6.798;2023-04-06T00:35:43;-0.40;99.90
21830;DHT22;11077;50.264;6.798;2023-04-06T00:38:10;-0.40;99.90
21830;DHT22;11077;50.264;6.798;2023-04-06T00:40:37;-0.40;99.90
21830;DHT22;11077;50.264;6.798;2023-04-06T00:43:07;-0.40;99.90
21830;DHT22;11077;50.264;6.798;2023-04-06T00:45:35;-0.50;99.90
21830;DHT22;11077;50.264;6.798;2023-04-06T00:48:03;-0.50;99.90
21830;DHT22;11077;50.264;6.798;2023-04-06T00:50:31;-0.50;99.90
21830;DHT22;11077;50.264;6.798;2023-04-06T00:52:58;-0.60;99.90
21830;DHT22;11077;50.264;6.798;2023-04-06T00:55:27;-0.60;99.90
21830;DHT22;11077;50.264;6.798;2023-04-06T00:57:57;-0.60;99.90
21830;DHT22;11077;50.264;6.798;2023-04-06T01:00:28;-0.60;99.90
21830;DHT22;11077;50.264;6.798;2023-04-06T01:02:59;-0.60;99.90
21830;DHT22;11077;50.264;6.798;2023-04-06T01:05:35;-0.70;99.90
21830;DHT22;11077;50.264;6.798;2023-04-06T01:08:10;-0.70;99.90
21830;DHT22;11077;50.264;6.798;2023-04-06T01:10:37;-0.70;99.90
21830;DHT22;11077;50.264;6.798;2023-04-06T01:13:12;-0.80;99.90
21830;DHT22;11077;50.264;6.798;2023-04-06T01:15:55;-0.80;99.90
21830;DHT22;11077;50.264;6.798;2023-04-06T01:18:30;-0.80;99.90
21830;DHT22;11077;50.264;6.798;2023-04-06T01:21:15;-0.80;99.90
21830;DHT22;11077;50.264;6.798;2023-04-06T01:24:04;-0.90;99.90
21830;DHT22;11077;50.264;6.798;2023-04-06T01:26:43;-0.90;99.90
21830;DHT22;11077;50.264;6.798;2023-04-06T01:29:11;-1.00;99.90
21830;DHT22;11077;50.264;6.798;2023-04-06T01:31:39;-1.00;99.90
21830;DHT22;11077;50.264;6.798;2023-04-06T01:34:07;-1.10;99.90
21830;DHT22;11077;50.264;6.798;2023-04-06T01:36:38;-1.20;99.90
21830;DHT22;11077;50.264;6.798;2023-04-06T01:39:31;-1.20;99.90
21830;DHT22;11077;50.264;6.798;2023-04-06T01:42:01;-1.30;99.90
21830;DHT22;11077;50.264;6.798;2023-04-06T01:44:30;-1.30;99.90
21830;DHT22;11077;50.264;6.798;2023-04-06T01:47:07;-1.30;99.90
21830;DHT22;11077;50.264;6.798;2023-04-06T01:49:34;-1.40;99.90
21830;DHT22;11077;50.264;6.798;2023-04-06T01:52:02;-1.40;99.90
21830;DHT22;11077;50.264;6.798;2023-04-06T01:54:32;-1.40;99.90
21830;DHT22;11077;50.264;6.798;2023-04-06T01:57:10;-1.50;99.90
21830;DHT22;11077;50.264;6.798;2023-04-06T01:59:42;-1.50;99.90
21830;DHT22;11077;50.264;6.798;2023-04-06T02:02:39;-1.50;99.90
21830;DHT22;11077;50.264;6.798;2023-04-06T02:05:13;-1.50;99.90
21830;DHT22;11077;50.264;6.798;2023-04-06T02:07:41;-1.50;99.90
21830;DHT22;11077;50.264;6.798;2023-04-06T02:10:13;-1.60;99.90
21830;DHT22;11077;50.264;6.798;2023-04-06T02:12:43;-1.60;99.90
21830;DHT22;11077;50.264;6.798;2023-04-06T02:15:15;-1.60;99.90
21830;DHT22;11077;50.264;6.798;2023-04-06T02:17:43;-1.60;99.90
21830;DHT22;11077;50.264;6.798;2023-04-06T02:20:10;-1.60;99.90
21830;DHT22;11077;50.264;6.798;2023-04-06T02:22:38;-1.60;99.90
21830;DHT22;11077;50.264;6.798;2023-04-06T02:25:06;-1.60;99.90
21830;DHT22;11077;50.264;6.798;2023-04-06T02:27:36;-1.60;99.90
21830;DHT22;11077;50.264;6.798;2023-04-06T02:30:04;-1.60;99.90
21830;DHT22;11077;50.264;6.798;2023-04-06T02:32:32;-1.70;99.90
21830;DHT22;11077;50.264;6.798;2023-04-06T02:34:59;-1.70;99.90
21830;DHT22;11077;50.264;6.798;2023-04-06T02:37:29;-1.60;99.90
21830;DHT22;11077;50.264;6.798;2023-04-06T02:39:58;-1.60;99.90
21830;DHT22;11077;50.264;6.798;2023-04-06T02:42:27;-1.60;99.90
21830;DHT22;11077;50.264;6.798;2023-04-06T02:44:56;-1.60;99.90
21830;DHT22;11077;50.264;6.798;2023-04-06T02:47:28;-1.60;99.90
21830;DHT22;11077;50.264;6.798;2023-04-06T02:49:56;-1.60;99.90
21830;DHT22;11077;50.264;6.798;2023-04-06T02:52:24;-1.60;99.90
21830;DHT22;11077;50.264;6.798;2023-04-06T02:54:51;-1.60;99.90
21830;DHT22;11077;50.264;6.798;2023-04-06T02:57:26;-1.70;99.90
21830;DHT22;11077;50.264;6.798;2023-04-06T02:59:55;-1.70;99.90
21830;DHT22;11077;50.264;6.798;2023-04-06T03:02:30;-1.70;99.90
21830;DHT22;11077;50.264;6.798;2023-04-06T03:05:05;-1.80;99.90
21830;DHT22;11077;50.264;6.798;2023-04-06T03:07:37;-1.80;99.90
21830;DHT22;11077;50.264;6.798;2023-04-06T03:10:08;-1.80;99.90
21830;DHT22;11077;50.264;6.798;2023-04-06T03:12:36;-1.70;99.90
21830;DHT22;11077;50.264;6.798;2023-04-06T03:15:18;-1.60;99.90
21830;DHT22;11077;50.264;6.798;2023-04-06T03:17:50;-1.60;99.90
21830;DHT22;11077;50.264;6.798;2023-04-06T03:20:38;-1.60;99.90
21830;DHT22;11077;50.264;6.798;2023-04-06T03:23:06;-1.60;99.90
21830;DHT22;11077;50.264;6.798;2023-04-06T03:25:38;-1.60;99.90
21830;DHT22;11077;50.264;6.798;2023-04-06T03:28:08;-1.60;99.90
21830;DHT22;11077;50.264;6.798;2023-04-06T03:30:45;-1.60;99.90
21830;DHT22;11077;50.264;6.798;2023-04-06T03:33:15;-1.70;99.90
21830;DHT22;11077;50.264;6.798;2023-04-06T03:35:51;-1.70;99.90
21830;DHT22;11077;50.264;6.798;2023-04-06T03:38:20;-1.70;99.90
21830;DHT22;11077;50.264;6.798;2023-04-06T03:40:47;-1.70;99.90
21830;DHT22;11077;50.264;6.798;2023-04-06T03:43:14;-1.70;99.90
21830;DHT22;11077;50.264;6.798;2023-04-06T03:45:42;-1.70;99.90
21830;DHT22;11077;50.264;6.798;2023-04-06T03:48:10;-1.80;99.90
21830;DHT22;11077;50.264;6.798;2023-04-06T03:50:38;-1.80;99.90
21830;DHT22;11077;50.264;6.798;2023-04-06T03:53:06;-1.80;99.90
21830;DHT22;11077;50.264;6.798;2023-04-06T03:55:34;-1.80;99.90
21830;DHT22;11077;50.264;6.798;2023-04-06T03:58:01;-1.80;99.90
21830;DHT22;11077;50.264;6.798;2023-04-06T04:00:29;-1.80;99.90
21830;DHT22;11077;50.264;6.798;2023-04-06T04:02:57;-1.80;99.90
21830;DHT22;11077;50.264;6.798;2023-04-06T04:05:26;-1.80;99.90
21830;DHT22;11077;50.264;6.798;2023-04-06T04:07:53;-1.80;99.90
21830;DHT22;11077;50.264;6.798;2023-04-06T04:10:24;-1.80;99.90
21830;DHT22;11077;50.264;6.798;2023-04-06T04:12:52;-1.80;99.90
21830;DHT22;11077;50.264;6.798;2023-04-06T04:15:19;-1.80;99.90
21830;DHT22;11077;50.264;6.798;2023-04-06T04:17:47;-1.80;99.90
21830;DHT22;11077;50.264;6.798;2023-04-06T04:20:16;-1.80;99.90
21830;DHT22;11077;50.264;6.798;2023-04-06T04:22:45;-1.90;99.90
21830;DHT22;11077;50.264;6.798;2023-04-06T04:25:13;-1.80;99.90
21830;DHT22;11077;50.264;6.798;2023-04-06T04:27:45;-1.90;99.90
21830;DHT22;11077;50.264;6.798;2023-04-06T04:30:13;-1.90;99.90
21830;DHT22;11077;50.264;6.798;2023-04-06T04:32:41;-1.90;99.90
21830;DHT22;11077;50.264;6.798;2023-04-06T04:35:10;-1.90;99.90
21830;DHT22;11077;50.264;6.798;2023-04-06T04:37:41;-1.90;99.90
21830;DHT22;11077;50.264;6.798;2023-04-06T04:40:11;-1.90;99.90
21830;DHT22;11077;50.264;6.798;2023-04-06T04:42:50;-1.90;99.90
21830;DHT22;11077;50.264;6.798;2023-04-06T04:45:25;-1.90;99.90
21830;DHT22;11077;50.264;6.798;2023-04-06T04:47:53;-1.90;99.90
21830;DHT22;11077;50.264;6.798;2023-04-06T04:50:23;-1.90;99.90
21830;DHT22;11077;50.264;6.798;2023-04-06T04:52:55;-1.90;99.90
21830;DHT22;11077;50.264;6.798;2023-04-06T04:55:26;-1.90;99.90
21830;DHT22;11077;50.264;6.798;2023-04-06T04:57:57;-1.90;99.90
21830;DHT22;11077;50.264;6.798;2023-04-06T05:00:49;-1.90;99.90
21830;DHT22;11077;50.264;6.798;2023-04-06T05:03:19;-1.80;99.90
21830;DHT22;11077;50.264;6.798;2023-04-06T05:05:55;-1.90;99.90
21830;DHT22;11077;50.264;6.798;2023-04-06T05:08:26;-1.90;99.90
21830;DHT22;11077;50.264;6.798;2023-04-06T05:10:55;-1.90;99.90
21830;DHT22;11077;50.264;6.798;2023-04-06T05:13:24;-1.90;99.90
21830;DHT22;11077;50.264;6.798;2023-04-06T05:15:53;-1.80;99.90
21830;DHT22;11077;50.264;6.798;2023-04-06T05:18:26;-1.80;99.90
21830;DHT22;11077;50.264;6.798;2023-04-06T05:20:56;-1.80;99.90
21830;DHT22;11077;50.264;6.798;2023-04-06T05:23:31;-1.80;99.90
21830;DHT22;11077;50.264;6.798;2023-04-06T05:26:03;-1.70;99.90
21830;DHT22;11077;50.264;6.798;2023-04-06T05:28:31;-1.70;99.90
21830;DHT22;11077;50.264;6.798;2023-04-06T05:31:00;-1.60;99.90
21830;DHT22;11077;50.264;6.798;2023-04-06T05:33:34;-1.50;99.90
21830;DHT22;11077;50.264;6.798;2023-04-06T05:36:07;-1.40;99.90
21830;DHT22;11077;50.264;6.798;2023-04-06T05:38:39;-1.30;99.90
21830;DHT22;11077;50.264;6.798;2023-04-06T05:41:18;-1.10;99.90
21830;DHT22;11077;50.264;6.798;2023-04-06T05:43:46;-1.00;99.90
21830;DHT22;11077;50.264;6.798;2023-04-06T05:46:13;-0.90;99.90
21830;DHT22;11077;50.264;6.798;2023-04-06T05:48:41;-0.70;99.90
21830;DHT22;11077;50.264;6.798;2023-04-06T05:51:10;-0.60;99.90
21830;DHT22;11077;50.264;6.798;2023-04-06T05:53:44;-0.50;99.90
21830;DHT22;11077;50.264;6.798;2023-04-06T05:56:12;-0.30;99.90
21830;DHT22;11077;50.264;6.798;2023-04-06T05:58:41;-0.30;99.90
21830;DHT22;11077;50.264;6.798;2023-04-06T06:01:12;0.00;99.90
21830;DHT22;11077;50.264;6.798;2023-04-06T06:03:43;0.10;99.90
21830;DHT22;11077;50.264;6.798;2023-04-06T06:06:11;0.30;99.90
21830;DHT22;11077;50.264;6.798;2023-04-06T06:08:50;0.40;99.90
21830;DHT22;11077;50.264;6.798;2023-04-06T06:11:18;0.60;99.90
21830;DHT22;11077;50.264;6.798;2023-04-06T06:13:49;0.70;99.90
21830;DHT22;11077;50.264;6.798;2023-04-06T06:16:17;0.80;99.90
21830;DHT22;11077;50.264;6.798;2023-04-06T06:18:47;1.00;99.90
21830;DHT22;11077;50.264;6.798;2023-04-06T06:21:15;1.10;99.90
21830;DHT22;11077;50.264;6.798;2023-04-06T06:23:44;1.20;99.90
21830;DHT22;11077;50.264;6.798;2023-04-06T06:26:16;1.40;99.90
21830;DHT22;11077;50.264;6.798;2023-04-06T06:28:43;1.50;99.90
21830;DHT22;11077;50.264;6.798;2023-04-06T06:31:14;1.70;99.90
21830;DHT22;11077;50.264;6.798;2023-04-06T06:33:43;1.90;99.90
21830;DHT22;11077;50.264;6.798;2023-04-06T06:36:10;2.20;99.90
21830;DHT22;11077;50.264;6.798;2023-04-06T06:38:40;2.50;99.90
21830;DHT22;11077;50.264;6.798;2023-04-06T06:41:07;2.80;99.90
21830;DHT22;11077;50.264;6.798;2023-04-06T06:43:36;3.00;99.90
21830;DHT22;11077;50.264;6.798;2023-04-06T06:46:07;3.20;99.90
21830;DHT22;11077;50.264;6.798;2023-04-06T06:48:36;3.40;99.90
21830;DHT22;11077;50.264;6.798;2023-04-06T06:51:03;3.60;99.90
21830;DHT22;11077;50.264;6.798;2023-04-06T06:53:31;3.70;99.90
21830;DHT22;11077;50.264;6.798;2023-04-06T06:55:58;3.80;99.90
21830;DHT22;11077;50.264;6.798;2023-04-06T06:58:26;3.90;99.90
21830;DHT22;11077;50.264;6.798;2023-04-06T07:00:56;4.10;99.90
21830;DHT22;11077;50.264;6.798;2023-04-06T07:03:24;4.20;99.90
21830;DHT22;11077;50.264;6.798;2023-04-06T07:05:53;4.30;99.90
21830;DHT22;11077;50.264;6.798;2023-04-06T07:08:23;4.40;99.90
21830;DHT22;11077;50.264;6.798;2023-04-06T07:10:54;4.50;99.90
21830;DHT22;11077;50.264;6.798;2023-04-06T07:13:23;4.80;99.90
21830;DHT22;11077;50.264;6.798;2023-04-06T07:15:55;4.80;99.90
21830;DHT22;11077;50.264;6.798;2023-04-06T07:18:23;4.90;99.90
21830;DHT22;11077;50.264;6.798;2023-04-06T07:20:53;5.10;99.90
21830;DHT22;11077;50.264;6.798;2023-04-06T07:23:20;5.30;99.90
21830;DHT22;11077;50.264;6.798;2023-04-06T07:25:47;5.30;99.90
21830;DHT22;11077;50.264;6.798;2023-04-06T07:28:17;5.50;99.90
21830;DHT22;11077;50.264;6.798;2023-04-06T07:30:45;5.70;99.90
21830;DHT22;11077;50.264;6.798;2023-04-06T07:33:13;5.90;99.90
21830;DHT22;11077;50.264;6.798;2023-04-06T07:35:43;6.10;99.90
21830;DHT22;11077;50.264;6.798;2023-04-06T07:38:17;6.20;99.90
21830;DHT22;11077;50.264;6.798;2023-04-06T07:40:45;6.20;99.90
21830;DHT22;11077;50.264;6.798;2023-04-06T07:43:15;6.30;99.90
21830;DHT22;11077;50.264;6.798;2023-04-06T07:45:43;6.20;99.90
21830;DHT22;11077;50.264;6.798;2023-04-06T07:48:12;6.30;99.90
21830;DHT22;11077;50.264;6.798;2023-04-06T07:50:39;6.40;99.90
21830;DHT22;11077;50.264;6.798;2023-04-06T07:53:08;6.60;99.90
21830;DHT22;11077;50.264;6.798;2023-04-06T07:55:39;6.70;99.90
21830;DHT22;11077;50.264;6.798;2023-04-06T07:58:06;6.80;99.90
21830;DHT22;11077;50.264;6.798;2023-04-06T08:00:33;6.90;99.90
21830;DHT22;11077;50.264;6.798;2023-04-06T08:03:01;7.00;99.90
21830;DHT22;11077;50.264;6.798;2023-04-06T08:05:28;7.10;99.90
21830;DHT22;11077;50.264;6.798;2023-04-06T08:07:56;7.10;99.90
21830;DHT22;11077;50.264;6.798;2023-04-06T08:10:23;7.30;99.90
21830;DHT22;11077;50.264;6.798;2023-04-06T08:12:52;7.40;99.90
21830;DHT22;11077;50.264;6.798;2023-04-06T08:15:20;7.60;99.90
21830;DHT22;11077;50.264;6.798;2023-04-06T08:17:47;7.70;99.90
21830;DHT22;11077;50.264;6.798;2023-04-06T08:20:15;7.80;99.90
21830;DHT22;11077;50.264;6.798;2023-04-06T08:22:42;7.90;99.90
21830;DHT22;11077;50.264;6.798;2023-04-06T08:25:10;8.00;99.90
21830;DHT22;11077;50.264;6.798;2023-04-06T08:27:38;8.10;99.90
21830;DHT22;11077;50.264;6.798;2023-04-06T08:30:07;8.00;99.90
21830;DHT22;11077;50.264;6.798;2023-04-06T08:32:35;7.90;99.90
21830;DHT22;11077;50.264;6.798;2023-04-06T08:35:03;8.00;99.90
21830;DHT22;11077;50.264;6.798;2023-04-06T08:37:30;8.00;99.90
21830;DHT22;11077;50.264;6.798;2023-04-06T08:39:58;8.00;99.90
21830;DHT22;11077;50.264;6.798;2023-04-06T08:42:26;7.90;99.90
21830;DHT22;11077;50.264;6.798;2023-04-06T08:44:55;7.70;99.90
21830;DHT22;11077;50.264;6.798;2023-04-06T08:47:24;7.70;99.90
21830;DHT22;11077;50.264;6.798;2023-04-06T08:49:52;7.70;99.90
21830;DHT22;11077;50.264;6.798;2023-04-06T08:52:20;7.70;99.90
21830;DHT22;11077;50.264;6.798;2023-04-06T08:54:48;7.60;99.90
21830;DHT22;11077;50.264;6.798;2023-04-06T08:57:16;7.70;99.90
21830;DHT22;11077;50.264;6.798;2023-04-06T08:59:45;7.80;99.90
21830;DHT22;11077;50.264;6.798;2023-04-06T09:02:17;7.90;99.90
21830;DHT22;11077;50.264;6.798;2023-04-06T09:04:48;8.10;99.90
21830;DHT22;11077;50.264;6.798;2023-04-06T09:07:16;8.10;99.90
21830;DHT22;11077;50.264;6.798;2023-04-06T09:09:44;8.20;99.90
21830;DHT22;11077;50.264;6.798;2023-04-06T09:12:23;8.30;99.90
21830;DHT22;11077;50.264;6.798;2023-04-06T09:14:50;8.30;99.90
21830;DHT22;11077;50.264;6.798;2023-04-06T09:17:21;8.30;99.90
21830;DHT22;11077;50.264;6.798;2023-04-06T09:19:51;8.30;99.90
21830;DHT22;11077;50.264;6.798;2023-04-06T09:22:19;8.40;99.90
21830;DHT22;11077;50.264;6.798;2023-04-06T09:24:49;8.40;99.90
21830;DHT22;11077;50.264;6.798;2023-04-06T09:27:17;8.50;99.90
21830;DHT22;11077;50.264;6.798;2023-04-06T09:29:45;8.50;99.90
21830;DHT22;11077;50.264;6.798;2023-04-06T09:32:13;8.60;99.90
21830;DHT22;11077;50.264;6.798;2023-04-06T09:34:42;8.80;99.90
21830;DHT22;11077;50.264;6.798;2023-04-06T09:37:17;8.90;99.90
21830;DHT22;11077;50.264;6.798;2023-04-06T09:39:46;9.00;99.90
21830;DHT22;11077;50.264;6.798;2023-04-06T09:42:23;9.20;99.90
21830;DHT22;11077;50.264;6.798;2023-04-06T09:44:51;9.20;99.90
21830;DHT22;11077;50.264;6.798;2023-04-06T09:47:20;9.30;99.90
21830;DHT22;11077;50.264;6.798;2023-04-06T09:49:50;9.30;99.90
21830;DHT22;11077;50.264;6.798;2023-04-06T09:52:22;9.40;99.90
21830;DHT22;11077;50.264;6.798;2023-04-06T09:54:50;9.40;99.90
21830;DHT22;11077;50.264;6.798;2023-04-06T09:57:25;9.40;99.90
21830;DHT22;11077;50.264;6.798;2023-04-06T09:59:57;9.40;99.90
21830;DHT22;11077;50.264;6.798;2023-04-06T10:02:35;9.40;99.90
21830;DHT22;11077;50.264;6.798;2023-04-06T10:05:09;9.40;99.90
21830;DHT22;11077;50.264;6.798;2023-04-06T10:07:42;9.40;99.90
21830;DHT22;11077;50.264;6.798;2023-04-06T10:10:10;9.30;99.90
21830;DHT22;11077;50.264;6.798;2023-04-06T10:12:39;9.20;99.90
21830;DHT22;11077;50.264;6.798;2023-04-06T10:15:09;9.10;99.90
21830;DHT22;11077;50.264;6.798;2023-04-06T10:17:37;9.20;99.90
21830;DHT22;11077;50.264;6.798;2023-04-06T10:20:09;9.20;99.90
21830;DHT22;11077;50.264;6.798;2023-04-06T10:22:43;9.20;99.90
21830;DHT22;11077;50.264;6.798;2023-04-06T10:25:16;9.10;99.90
21830;DHT22;11077;50.264;6.798;2023-04-06T10:27:44;9.00;99.90
21830;DHT22;11077;50.264;6.798;2023-04-06T10:30:15;8.90;99.90
21830;DHT22;11077;50.264;6.798;2023-04-06T10:32:43;9.00;99.90
21830;DHT22;11077;50.264;6.798;2023-04-06T10:35:11;9.10;99.90
21830;DHT22;11077;50.264;6.798;2023-04-06T10:37:50;9.20;99.90
21830;DHT22;11077;50.264;6.798;2023-04-06T10:40:22;9.20;99.90
21830;DHT22;11077;50.264;6.798;2023-04-06T10:42:52;9.10;99.90
21830;DHT22;11077;50.264;6.798;2023-04-06T10:45:22;9.10;99.90
21830;DHT22;11077;50.264;6.798;2023-04-06T10:47:52;9.20;99.90
21830;DHT22;11077;50.264;6.798;2023-04-06T10:50:21;9.20;99.90
21830;DHT22;11077;50.264;6.798;2023-04-06T10:53:01;9.20;99.90
21830;DHT22;11077;50.264;6.798;2023-04-06T10:55:29;9.10;99.90
21830;DHT22;11077;50.264;6.798;2023-04-06T10:57:56;9.10;99.90
21830;DHT22;11077;50.264;6.798;2023-04-06T11:00:24;9.10;99.90
21830;DHT22;11077;50.264;6.798;2023-04-06T11:02:59;9.20;99.90
21830;DHT22;11077;50.264;6.798;2023-04-06T11:05:27;9.30;99.90
21830;DHT22;11077;50.264;6.798;2023-04-06T11:07:56;9.40;99.90
21830;DHT22;11077;50.264;6.798;2023-04-06T11:10:25;9.50;99.90
21830;DHT22;11077;50.264;6.798;2023-04-06T11:12:53;9.40;99.90
21830;DHT22;11077;50.264;6.798;2023-04-06T11:15:21;9.40;99.90
21830;DHT22;11077;50.264;6.798;2023-04-06T11:17:48;9.50;99.90
21830;DHT22;11077;50.264;6.798;2023-04-06T11:20:16;9.50;99.90
21830;DHT22;11077;50.264;6.798;2023-04-06T11:22:49;9.50;99.90
21830;DHT22;11077;50.264;6.798;2023-04-06T11:25:17;9.60;99.90
21830;DHT22;11077;50.264;6.798;2023-04-06T11:27:46;9.70;99.90
21830;DHT22;11077;50.264;6.798;2023-04-06T11:30:15;9.70;99.90
21830;DHT22;11077;50.264;6.798;2023-04-06T11:32:44;9.70;99.90
21830;DHT22;11077;50.264;6.798;2023-04-06T11:35:12;9.70;99.90
21830;DHT22;11077;50.264;6.798;2023-04-06T11:37:46;9.60;99.90
21830;DHT22;11077;50.264;6.798;2023-04-06T11:40:13;9.60;99.90
21830;DHT22;11077;50.264;6.798;2023-04-06T11:42:41;9.70;99.90
21830;DHT22;11077;50.264;6.798;2023-04-06T11:45:15;9.80;99.90
21830;DHT22;11077;50.264;6.798;2023-04-06T11:47:43;9.80;99.90
21830;DHT22;11077;50.264;6.798;2023-04-06T11:50:12;9.80;99.90
21830;DHT22;11077;50.264;6.798;2023-04-06T11:52:41;9.60;99.90
21830;DHT22;11077;50.264;6.798;2023-04-06T11:55:13;9.70;99.90
21830;DHT22;11077;50.264;6.798;2023-04-06T11:57:42;9.60;99.90
21830;DHT22;11077;50.264;6.798;2023-04-06T12:00:14;9.60;99.90
21830;DHT22;11077;50.264;6.798;2023-04-06T12:02:45;9.50;99.90
21830;DHT22;11077;50.264;6.798;2023-04-06T12:05:13;9.50;99.90
21830;DHT22;11077;50.264;6.798;2023-04-06T12:07:41;9.50;99.90
21830;DHT22;11077;50.264;6.798;2023-04-06T12:10:09;9.50;99.90
21830;DHT22;11077;50.264;6.798;2023-04-06T12:12:36;9.50;99.90
21830;DHT22;11077;50.264;6.798;2023-04-06T12:15:05;9.50;99.90
21830;DHT22;11077;50.264;6.798;2023-04-06T12:17:34;9.40;99.90
21830;DHT22;11077;50.264;6.798;2023-04-06T12:20:03;9.40;99.90
21830;DHT22;11077;50.264;6.798;2023-04-06T12:22:31;9.30;99.90
21830;DHT22;11077;50.264;6.798;2023-04-06T12:24:58;9.40;99.90
21830;DHT22;11077;50.264;6.798;2023-04-06T12:27:25;9.50;99.90
21830;DHT22;11077;50.264;6.798;2023-04-06T12:29:53;9.50;99.90
21830;DHT22;11077;50.264;6.798;2023-04-06T12:32:21;9.50;99.90
21830;DHT22;11077;50.264;6.798;2023-04-06T12:34:51;9.50;99.90
21830;DHT22;11077;50.264;6.798;2023-04-06T12:37:19;9.40;99.90
21830;DHT22;11077;50.264;6.798;2023-04-06T12:39:47;9.40;99.90
21830;DHT22;11077;50.264;6.798;2023-04-06T12:42:16;9.40;99.90
21830;DHT22;11077;50.264;6.798;2023-04-06T12:44:44;9.40;99.90
21830;DHT22;11077;50.264;6.798;2023-04-06T12:47:12;9.30;99.90
21830;DHT22;11077;50.264;6.798;2023-04-06T12:49:40;9.30;99.90
21830;DHT22;11077;50.264;6.798;2023-04-06T12:52:10;9.20;99.90
21830;DHT22;11077;50.264;6.798;2023-04-06T12:54:38;9.20;99.90
21830;DHT22;11077;50.264;6.798;2023-04-06T12:57:05;9.20;99.90
21830;DHT22;11077;50.264;6.798;2023-04-06T12:59:33;9.20;99.90
21830;DHT22;11077;50.264;6.798;2023-04-06T13:02:01;9.20;99.90
21830;DHT22;11077;50.264;6.798;2023-04-06T13:04:28;9.20;99.90
21830;DHT22;11077;50.264;6.798;2023-04-06T13:06:56;9.10;99.90
21830;DHT22;11077;50.264;6.798;2023-04-06T13:09:25;8.90;99.90
21830;DHT22;11077;50.264;6.798;2023-04-06T13:11:53;8.70;99.90
21830;DHT22;11077;50.264;6.798;2023-04-06T13:14:21;8.50;99.90
21830;DHT22;11077;50.264;6.798;2023-04-06T13:16:48;8.40;99.90
21830;DHT22;11077;50.264;6.798;2023-04-06T13:19:17;8.10;99.90
21830;DHT22;11077;50.264;6.798;2023-04-06T13:21:46;7.90;99.90
21830;DHT22;11077;50.264;6.798;2023-04-06T13:24:14;7.70;99.90
21830;DHT22;11077;50.264;6.798;2023-04-06T13:26:43;7.60;99.90
21830;DHT22;11077;50.264;6.798;2023-04-06T13:29:11;7.50;99.90
21830;DHT22;11077;50.264;6.798;2023-04-06T13:31:38;7.50;99.90
21830;DHT22;11077;50.264;6.798;2023-04-06T13:34:05;7.50;99.90
21830;DHT22;11077;50.264;6.798;2023-04-06T13:36:33;7.60;99.90
21830;DHT22;11077;50.264;6.798;2023-04-06T13:39:00;7.50;99.90
21830;DHT22;11077;50.264;6.798;2023-04-06T13:41:28;7.40;99.90
21830;DHT22;11077;50.264;6.798;2023-04-06T13:43:56;7.30;99.90
21830;DHT22;11077;50.264;6.798;2023-04-06T13:46:24;7.20;99.90
21830;DHT22;11077;50.264;6.798;2023-04-06T13:48:51;7.10;99.90
21830;DHT22;11077;50.264;6.798;2023-04-06T13:51:19;7.10;99.90
21830;DHT22;11077;50.264;6.798;2023-04-06T13:53:46;7.10;99.90
21830;DHT22;11077;50.264;6.798;2023-04-06T13:56:16;7.20;99.90
21830;DHT22;11077;50.264;6.798;2023-04-06T13:58:43;7.00;99.90
21830;DHT22;11077;50.264;6.798;2023-04-06T14:01:11;7.10;99.90
21830;DHT22;11077;50.264;6.798;2023-04-06T14:03:38;7.10;99.90
21830;DHT22;11077;50.264;6.798;2023-04-06T14:06:11;7.00;99.90
21830;DHT22;11077;50.264;6.798;2023-04-06T14:08:39;6.80;99.90
21830;DHT22;11077;50.264;6.798;2023-04-06T14:11:10;6.80;99.90
21830;DHT22;11077;50.264;6.798;2023-04-06T14:13:38;6.80;99.90
21830;DHT22;11077;50.264;6.798;2023-04-06T14:16:06;6.70;99.90
21830;DHT22;11077;50.264;6.798;2023-04-06T14:18:36;6.60;99.90
21830;DHT22;11077;50.264;6.798;2023-04-06T14:21:04;6.50;99.90
21830;DHT22;11077;50.264;6.798;2023-04-06T14:23:31;6.50;99.90
21830;DHT22;11077;50.264;6.798;2023-04-06T14:26:02;6.50;99.90
21830;DHT22;11077;50.264;6.798;2023-04-06T14:28:31;6.40;99.90
21830;DHT22;11077;50.264;6.798;2023-04-06T14:30:59;6.40;99.90
21830;DHT22;11077;50.264;6.798;2023-04-06T14:33:26;6.40;99.90
21830;DHT22;11077;50.264;6.798;2023-04-06T14:35:55;6.40;99.90
21830;DHT22;11077;50.264;6.798;2023-04-06T14:38:23;6.40;99.90
21830;DHT22;11077;50.264;6.798;2023-04-06T14:40:50;6.30;99.90
21830;DHT22;11077;50.264;6.798;2023-04-06T14:43:18;6.30;99.90
21830;DHT22;11077;50.264;6.798;2023-04-06T14:45:45;6.40;99.90
21830;DHT22;11077;50.264;6.798;2023-04-06T14:48:13;6.40;99.90
21830;DHT22;11077;50.264;6.798;2023-04-06T14:50:52;6.50;99.90
21830;DHT22;11077;50.264;6.798;2023-04-06T14:53:22;6.50;99.90
21830;DHT22;11077;50.264;6.798;2023-04-06T14:55:49;6.50;99.90
21830;DHT22;11077;50.264;6.798;2023-04-06T14:58:17;6.50;99.90
21830;DHT22;11077;50.264;6.798;2023-04-06T15:00:44;6.50;99.90
21830;DHT22;11077;50.264;6.798;2023-04-06T15:03:12;6.50;99.90
21830;DHT22;11077;50.264;6.798;2023-04-06T15:05:39;6.50;99.90
21830;DHT22;11077;50.264;6.798;2023-04-06T15:08:06;6.50;99.90
21830;DHT22;11077;50.264;6.798;2023-04-06T15:10:36;6.40;99.90
21830;DHT22;11077;50.264;6.798;2023-04-06T15:13:04;6.30;99.90
21830;DHT22;11077;50.264;6.798;2023-04-06T15:15:31;6.30;99.90
21830;DHT22;11077;50.264;6.798;2023-04-06T15:17:59;6.30;99.90
21830;DHT22;11077;50.264;6.798;2023-04-06T15:20:29;6.20;99.90
21830;DHT22;11077;50.264;6.798;2023-04-06T15:22:57;6.20;99.90
21830;DHT22;11077;50.264;6.798;2023-04-06T15:25:24;6.20;99.90
21830;DHT22;11077;50.264;6.798;2023-04-06T15:27:53;6.10;99.90
21830;DHT22;11077;50.264;6.798;2023-04-06T15:30:21;6.20;99.90
21830;DHT22;11077;50.264;6.798;2023-04-06T15:32:52;6.20;99.90
21830;DHT22;11077;50.264;6.798;2023-04-06T15:35:20;6.20;99.90
21830;DHT22;11077;50.264;6.798;2023-04-06T15:37:47;6.20;99.90
21830;DHT22;11077;50.264;6.798;2023-04-06T15:40:15;6.10;99.90
21830;DHT22;11077;50.264;6.798;2023-04-06T15:42:42;6.10;99.90
21830;DHT22;11077;50.264;6.798;2023-04-06T15:45:11;6.10;99.90
21830;DHT22;11077;50.264;6.798;2023-04-06T15:47:39;6.00;99.90
21830;DHT22;11077;50.264;6.798;2023-04-06T15:50:07;6.00;99.90
21830;DHT22;11077;50.264;6.798;2023-04-06T15:52:37;6.00;99.90
21830;DHT22;11077;50.264;6.798;2023-04-06T15:55:06;6.00;99.90